Time;durP1;ratioP1;P1;durP2;ratioP2;P2;SDS_P1;SDS_P2;PMS_P1;PMS_P2;Temp;Humidity;BMP_temperature;BMP_pressure;BME280_temperature;BME280_humidity;BME280_pressure;Samples;Min_cycle;Max_cycle;Signal;HPM_P1;HPM_P2
2022/03/01 00:01:28;;;;;;;91.60;73.32;;;22.30;98.10;;;;;;4111406;28;20053;-63
2022/03/01 00:03:34;;;;;;;99.15;75.65;;;22.40;97.80;;;;;;4111128;28;20105;-65
2022/03/01 00:05:39;;;;;;;104.97;78.22;;;22.40;97.80;;;;;;4110506;28;20047;-64
2022/03/01 00:07:43;;;;;;;105.53;79.93;;;22.40;97.80;;;;;;4094621;28;20035;-66
2022/03/01 00:09:49;;;;;;;102.88;79.43;;;22.50;97.70;;;;;;4136330;28;20395;-66
2022/03/01 00:11:54;;;;;;;101.13;76.63;;;22.40;97.70;;;;;;4162060;28;20096;-65
2022/03/01 00:14:00;;;;;;;101.72;78.18;;;22.40;97.90;;;;;;4162443;28;20400;-66
2022/03/01 00:16:08;;;;;;;95.45;74.70;;;22.50;97.90;;;;;;4162207;28;20069;-67
2022/03/01 00:18:12;;;;;;;98.35;73.75;;;22.60;97.60;;;;;;4162365;28;20061;-67
2022/03/01 00:20:19;;;;;;;84.75;69.85;;;22.70;97.50;;;;;;4162131;28;20091;-66
2022/03/01 00:22:23;;;;;;;96.28;70.75;;;22.80;97.20;;;;;;4164935;28;20045;-67
2022/03/01 00:24:27;;;;;;;89.38;69.55;;;22.90;97.00;;;;;;4165381;28;20107;-67
2022/03/01 00:26:37;;;;;;;90.88;69.20;;;22.90;96.90;;;;;;4164588;28;20041;-65
2022/03/01 00:28:44;;;;;;;85.03;68.50;;;22.90;97.00;;;;;;4166259;28;20038;-65
2022/03/01 00:30:48;;;;;;;88.18;67.45;;;22.90;97.10;;;;;;4165680;28;20419;-66
2022/03/01 00:32:52;;;;;;;87.32;67.00;;;23.00;96.90;;;;;;4164937;28;20068;-66
2022/03/01 00:35:00;;;;;;;90.22;66.57;;;23.10;96.80;;;;;;4157027;28;20111;-66
2022/03/01 00:37:06;;;;;;;86.68;67.30;;;23.10;96.70;;;;;;4164091;28;20045;-66
2022/03/01 00:39:12;;;;;;;88.85;65.70;;;23.10;96.80;;;;;;4161710;28;20057;-67
2022/03/01 00:41:19;;;;;;;87.07;63.80;;;23.20;96.70;;;;;;4164002;28;20048;-71
2022/03/01 00:43:25;;;;;;;80.75;63.75;;;23.20;96.80;;;;;;4164311;28;20041;-68
2022/03/01 00:45:29;;;;;;;90.25;64.65;;;23.20;96.70;;;;;;4164440;28;20042;-65
2022/03/01 00:47:36;;;;;;;87.25;64.90;;;23.20;96.80;;;;;;4165193;28;20049;-67
2022/03/01 00:49:42;;;;;;;87.05;64.30;;;23.20;96.80;;;;;;4164801;28;20056;-67
2022/03/01 00:51:47;;;;;;;76.82;61.90;;;23.30;96.50;;;;;;4166251;28;20416;-67
2022/03/01 00:53:53;;;;;;;81.55;62.40;;;23.30;96.50;;;;;;4166520;28;20035;-68
2022/03/01 00:56:04;;;;;;;86.63;65.80;;;23.30;96.80;;;;;;4165128;28;20101;-67
2022/03/01 00:58:08;;;;;;;89.22;65.30;;;23.30;97.00;;;;;;4159523;28;20052;-67
2022/03/01 01:00:15;;;;;;;89.35;66.13;;;23.40;97.00;;;;;;4165767;28;20042;-67
2022/03/01 01:02:22;;;;;;;89.28;64.97;;;23.50;96.70;;;;;;4166347;28;20041;-67
2022/03/01 01:04:26;;;;;;;80.32;62.88;;;23.50;96.80;;;;;;4165332;28;20033;-66
2022/03/01 01:06:33;;;;;;;90.63;64.03;;;23.50;96.40;;;;;;4164891;28;20072;-65
2022/03/01 01:08:39;;;;;;;83.85;62.42;;;23.60;96.40;;;;;;4165999;28;20045;-67
2022/03/01 01:10:45;;;;;;;87.90;64.68;;;23.60;96.40;;;;;;4165797;28;20384;-67
2022/03/01 01:12:51;;;;;;;91.50;64.65;;;23.70;96.00;;;;;;4165004;28;20496;-68
2022/03/01 01:14:56;;;;;;;85.47;61.38;;;23.70;96.00;;;;;;4163669;28;20065;-67
2022/03/01 01:17:03;;;;;;;85.50;63.67;;;23.70;96.10;;;;;;4164054;28;20049;-67
2022/03/01 01:19:10;;;;;;;87.43;63.63;;;23.80;96.00;;;;;;4154676;28;20567;-67
2022/03/01 01:21:17;;;;;;;81.88;62.40;;;23.90;95.90;;;;;;4162765;28;20057;-67
2022/03/01 01:23:22;;;;;;;81.18;64.35;;;24.00;95.90;;;;;;4157580;28;20052;-67
2022/03/01 01:25:28;;;;;;;81.15;64.50;;;24.00;96.20;;;;;;4163435;28;20087;-67
2022/03/01 01:27:35;;;;;;;85.30;65.30;;;24.10;96.10;;;;;;4163932;28;20121;-67
2022/03/01 01:29:39;;;;;;;83.20;66.22;;;24.00;96.00;;;;;;4162712;28;20042;-68
2022/03/01 01:31:46;;;;;;;87.03;67.15;;;24.10;96.20;;;;;;4164578;28;20045;-67
2022/03/01 01:33:53;;;;;;;87.30;67.82;;;24.20;96.30;;;;;;4163873;28;20566;-66
2022/03/01 01:35:58;;;;;;;83.63;63.42;;;24.20;96.10;;;;;;4162717;28;20057;-67
2022/03/01 01:38:04;;;;;;;82.95;63.58;;;24.20;95.60;;;;;;4164371;28;20057;-67
2022/03/01 01:40:12;;;;;;;80.80;63.30;;;24.30;95.70;;;;;;4164560;28;20477;-67
2022/03/01 01:42:16;;;;;;;78.30;63.35;;;24.40;96.20;;;;;;4156981;28;20377;-67
2022/03/01 01:44:23;;;;;;;82.13;61.30;;;24.50;96.00;;;;;;4163593;28;20068;-67
2022/03/01 01:46:34;;;;;;;77.53;60.50;;;24.60;95.60;;;;;;4164249;28;20646;-67
2022/03/01 01:48:39;;;;;;;78.00;60.35;;;24.60;95.40;;;;;;4164291;28;20046;-67
2022/03/01 01:50:47;;;;;;;71.78;56.35;;;24.60;95.70;;;;;;4164102;28;20124;-67
2022/03/01 01:52:54;;;;;;;73.22;55.95;;;24.70;95.20;;;;;;4162997;28;20049;-67
2022/03/01 01:54:59;;;;;;;71.72;54.92;;;24.80;94.50;;;;;;4164701;28;20776;-67
2022/03/01 01:57:21;;;;;;;73.40;54.92;;;24.80;94.40;;;;;;4164264;28;20056;-67
2022/03/01 01:59:27;;;;;;;69.40;54.47;;;24.80;94.80;;;;;;4164889;28;20073;-67
2022/03/01 02:01:32;;;;;;;63.67;51.72;;;24.90;94.50;;;;;;4164060;28;20038;-67
2022/03/01 02:03:39;;;;;;;64.30;51.17;;;25.10;94.10;;;;;;4156588;28;20051;-67
2022/03/01 02:05:45;;;;;;;67.00;53.42;;;25.10;94.10;;;;;;4162597;28;20061;-67
2022/03/01 02:07:51;;;;;;;61.95;51.65;;;25.20;94.00;;;;;;4164211;28;20111;-66
2022/03/01 02:09:57;;;;;;;58.63;49.85;;;25.30;94.00;;;;;;4164154;28;20045;-67
2022/03/01 02:12:04;;;;;;;65.30;51.35;;;25.30;93.70;;;;;;4162976;28;20137;-67
2022/03/01 02:14:11;;;;;;;62.10;49.38;;;25.40;93.40;;;;;;4163778;28;20034;-68
2022/03/01 02:16:18;;;;;;;62.78;48.70;;;25.50;93.30;;;;;;4163423;28;20049;-67
2022/03/01 02:18:27;;;;;;;59.13;49.53;;;25.60;93.50;;;;;;4163587;28;20045;-67
2022/03/01 02:20:31;;;;;;;57.03;48.42;;;25.60;93.20;;;;;;4163649;28;20103;-67
2022/03/01 02:22:38;;;;;;;56.67;43.42;;;25.70;93.10;;;;;;4163478;28;20055;-65
2022/03/01 02:24:42;;;;;;;52.58;42.28;;;25.80;92.50;;;;;;4163298;28;20041;-67
2022/03/01 02:26:46;;;;;;;49.22;40.60;;;25.90;91.30;;;;;;4163008;28;20055;-66
2022/03/01 02:28:53;;;;;;;53.28;40.38;;;26.00;91.40;;;;;;4162029;28;20715;-67
2022/03/01 02:30:59;;;;;;;52.25;40.42;;;26.00;91.30;;;;;;4161968;28;20045;-67
2022/03/01 02:33:04;;;;;;;50.10;41.22;;;26.00;91.40;;;;;;4163420;28;20056;-67
2022/03/01 02:35:11;;;;;;;53.55;44.00;;;26.00;91.60;;;;;;4155080;28;20049;-65
2022/03/01 02:37:18;;;;;;;55.47;44.20;;;26.30;91.30;;;;;;4162659;28;20488;-67
2022/03/01 02:39:24;;;;;;;57.10;46.03;;;26.30;91.80;;;;;;4162876;28;20045;-64
2022/03/01 02:41:31;;;;;;;74.93;45.78;;;26.30;91.70;;;;;;4162699;28;20061;-64
2022/03/01 02:43:38;;;;;;;50.83;40.40;;;26.40;91.10;;;;;;4162620;28;20053;-64
2022/03/01 02:45:42;;;;;;;50.42;40.78;;;26.50;90.90;;;;;;4161317;28;20370;-64
2022/03/01 02:47:49;;;;;;;50.25;42.00;;;26.50;91.10;;;;;;4162031;28;20045;-64
2022/03/01 02:49:56;;;;;;;55.80;40.08;;;26.50;91.20;;;;;;4162613;28;20099;-64
2022/03/01 02:52:00;;;;;;;47.78;38.72;;;26.50;91.40;;;;;;4161347;28;20045;-64
2022/03/01 02:54:07;;;;;;;48.33;39.30;;;26.60;91.20;;;;;;4161288;28;20709;-64
2022/03/01 02:56:16;;;;;;;49.05;41.90;;;26.70;90.90;;;;;;4162134;28;20099;-64
2022/03/01 02:58:22;;;;;;;50.50;38.72;;;26.80;91.10;;;;;;4162257;28;20052;-65
2022/03/01 03:00:28;;;;;;;44.22;34.38;;;26.80;91.10;;;;;;4161799;28;20060;-64
2022/03/01 03:02:35;;;;;;;44.25;36.90;;;26.90;90.30;;;;;;4162433;28;20096;-65
2022/03/01 03:04:40;;;;;;;45.60;36.75;;;27.00;90.40;;;;;;4154159;28;20049;-64
2022/03/01 03:06:44;;;;;;;46.55;37.42;;;27.00;90.40;;;;;;4161932;28;20037;-64
2022/03/01 03:08:51;;;;;;;50.72;37.35;;;27.00;90.30;;;;;;4162551;28;20048;-64
2022/03/01 03:10:55;;;;;;;43.17;36.38;;;27.00;90.60;;;;;;4162009;28;20080;-64
2022/03/01 03:13:02;;;;;;;51.47;38.53;;;27.00;90.80;;;;;;4156171;28;20053;-64
2022/03/01 03:15:07;;;;;;;45.55;35.33;;;27.00;90.70;;;;;;4161721;28;20050;-65
2022/03/01 03:17:11;;;;;;;40.38;33.67;;;27.20;90.20;;;;;;4162057;28;20060;-65
2022/03/01 03:19:19;;;;;;;43.63;34.90;;;27.30;90.10;;;;;;4162051;28;20041;-65
2022/03/01 03:21:24;;;;;;;40.60;32.90;;;27.30;90.30;;;;;;4161878;28;20484;-64
2022/03/01 03:23:28;;;;;;;44.80;32.78;;;27.40;90.20;;;;;;4162215;28;20117;-64
2022/03/01 03:25:35;;;;;;;41.25;31.88;;;27.40;90.00;;;;;;4161745;28;20431;-64
2022/03/01 03:27:41;;;;;;;37.88;31.23;;;27.40;90.00;;;;;;4162324;28;20091;-65
2022/03/01 03:29:46;;;;;;;38.88;30.75;;;27.50;90.00;;;;;;4162273;28;20046;-65
2022/03/01 03:31:54;;;;;;;38.63;30.67;;;27.70;89.60;;;;;;4160966;28;20042;-63
2022/03/01 03:34:00;;;;;;;44.25;32.10;;;27.70;88.90;;;;;;4162202;28;20470;-63
2022/03/01 03:36:04;;;;;;;37.03;31.65;;;27.80;90.10;;;;;;4161477;28;20041;-65
2022/03/01 03:38:09;;;;;;;39.42;31.58;;;27.90;89.40;;;;;;4156338;28;20378;-65
2022/03/01 03:40:16;;;;;;;34.45;29.17;;;28.00;87.70;;;;;;4157285;28;20042;-64
2022/03/01 03:42:24;;;;;;;37.47;30.27;;;28.10;85.90;;;;;;4157828;28;20115;-64
2022/03/01 03:44:29;;;;;;;33.33;27.23;;;28.10;86.60;;;;;;4160783;28;20046;-64
2022/03/01 03:46:36;;;;;;;32.47;26.13;;;28.00;86.60;;;;;;4160797;28;20045;-64
2022/03/01 03:48:41;;;;;;;30.90;25.98;;;28.20;85.00;;;;;;4161274;28;20073;-65
2022/03/01 03:50:47;;;;;;;27.70;23.38;;;28.10;84.30;;;;;;4158127;28;20052;-65
2022/03/01 03:52:54;;;;;;;32.25;22.95;;;28.20;85.50;;;;;;4157649;28;20037;-64
2022/03/01 03:54:59;;;;;;;32.70;24.10;;;28.40;84.80;;;;;;4159668;28;20425;-64
2022/03/01 03:57:08;;;;;;;28.15;22.08;;;28.40;84.60;;;;;;4163033;28;20038;-65
2022/03/01 03:59:15;;;;;;;28.90;22.50;;;28.40;84.30;;;;;;4165262;28;20045;-65
2022/03/01 04:01:19;;;;;;;30.55;21.90;;;28.30;84.10;;;;;;4165024;28;20724;-65
2022/03/01 04:03:26;;;;;;;24.58;20.35;;;28.30;83.20;;;;;;4157548;28;20041;-65
2022/03/01 04:05:35;;;;;;;26.02;20.85;;;28.50;81.60;;;;;;4164653;28;20450;-65
2022/03/01 04:07:41;;;;;;;24.83;20.92;;;28.50;81.40;;;;;;4164905;28;20105;-65
2022/03/01 04:09:47;;;;;;;24.58;20.05;;;28.50;79.80;;;;;;4165113;28;20060;-64
2022/03/01 04:11:53;;;;;;;22.73;20.33;;;28.60;79.40;;;;;;4164956;28;20092;-65
2022/03/01 04:13:58;;;;;;;24.58;20.65;;;28.60;79.40;;;;;;4165219;28;20053;-64
2022/03/01 04:16:05;;;;;;;26.98;20.38;;;28.70;80.70;;;;;;4164225;28;20063;-66
2022/03/01 04:18:12;;;;;;;25.40;20.80;;;28.60;80.60;;;;;;4164310;28;20050;-64
2022/03/01 04:20:20;;;;;;;26.20;22.23;;;28.60;81.40;;;;;;4165909;28;20069;-65
2022/03/01 04:22:24;;;;;;;27.60;21.20;;;28.70;80.90;;;;;;4164983;28;20053;-64
2022/03/01 04:24:29;;;;;;;27.88;21.40;;;28.90;79.70;;;;;;4164735;28;20077;-65
2022/03/01 04:26:34;;;;;;;26.38;20.98;;;28.90;80.10;;;;;;4156676;28;20037;-65
2022/03/01 04:28:40;;;;;;;29.20;21.70;;;29.00;80.10;;;;;;4164877;28;20439;-65
2022/03/01 04:30:46;;;;;;;25.42;20.10;;;29.00;80.10;;;;;;4164096;28;20041;-65
2022/03/01 04:32:50;;;;;;;28.92;21.40;;;29.00;79.40;;;;;;4164357;28;20571;-63
2022/03/01 04:34:57;;;;;;;24.27;19.77;;;29.40;78.30;;;;;;4164598;28;20057;-62
2022/03/01 04:37:03;;;;;;;24.23;19.15;;;29.40;78.00;;;;;;4164206;28;20461;-63
2022/03/01 04:39:10;;;;;;;23.90;19.98;;;29.40;79.10;;;;;;4164744;28;20045;-65
2022/03/01 04:41:18;;;;;;;23.95;20.08;;;29.30;78.90;;;;;;4162293;28;20045;-64
2022/03/01 04:43:24;;;;;;;23.50;19.85;;;29.30;79.40;;;;;;4164365;28;20166;-63
2022/03/01 04:45:30;;;;;;;26.75;19.73;;;29.30;81.00;;;;;;4162868;28;20459;-63
2022/03/01 04:47:38;;;;;;;23.60;19.65;;;29.30;80.60;;;;;;4164308;28;20103;-63
2022/03/01 04:49:44;;;;;;;22.95;19.02;;;29.30;79.60;;;;;;4164091;28;20119;-64
2022/03/01 04:51:48;;;;;;;26.13;19.30;;;29.40;78.20;;;;;;4163442;28;20111;-63
2022/03/01 04:53:52;;;;;;;24.90;19.15;;;29.40;79.50;;;;;;4163895;28;20049;-63
2022/03/01 04:55:59;;;;;;;22.23;17.95;;;29.40;80.20;;;;;;4162639;28;20042;-64
2022/03/01 04:58:03;;;;;;;22.88;18.52;;;29.50;79.40;;;;;;4164564;28;20506;-63
2022/03/01 05:00:11;;;;;;;21.55;17.60;;;29.60;78.80;;;;;;4145818;28;20076;-64
2022/03/01 05:02:17;;;;;;;21.05;17.60;;;29.60;78.70;;;;;;4164372;28;20053;-63
2022/03/01 05:04:22;;;;;;;23.17;17.77;;;29.60;78.20;;;;;;4162683;28;20040;-64
2022/03/01 05:06:26;;;;;;;20.52;18.17;;;29.70;78.00;;;;;;4163498;28;20061;-65
2022/03/01 05:08:33;;;;;;;22.95;17.48;;;29.70;77.70;;;;;;4162719;28;20064;-65
2022/03/01 05:10:38;;;;;;;23.65;18.33;;;29.80;78.10;;;;;;4163485;28;20391;-65
2022/03/01 05:12:53;;;;;;;26.27;18.13;;;29.80;78.20;;;;;;4163978;28;20099;-65
2022/03/01 05:14:59;;;;;;;23.63;19.23;;;29.90;78.20;;;;;;4163605;28;20696;-65
2022/03/01 05:17:04;;;;;;;20.63;18.08;;;29.80;77.80;;;;;;4163945;28;20049;-65
2022/03/01 05:19:11;;;;;;;26.20;18.90;;;29.90;78.60;;;;;;4163804;28;20057;-65
2022/03/01 05:21:15;;;;;;;22.40;18.08;;;30.00;78.50;;;;;;4163122;28;20049;-65
2022/03/01 05:23:20;;;;;;;22.77;17.83;;;30.10;78.00;;;;;;4163786;28;20049;-68
2022/03/01 05:25:26;;;;;;;21.63;18.25;;;30.10;78.20;;;;;;4163570;28;20052;-68
2022/03/01 05:27:33;;;;;;;21.35;18.60;;;30.10;78.90;;;;;;4162854;28;20043;-67
2022/03/01 05:29:37;;;;;;;21.00;18.27;;;30.20;78.90;;;;;;4163997;28;20046;-68
2022/03/01 05:31:42;;;;;;;23.85;18.25;;;30.20;79.20;;;;;;4163219;28;20431;-68
2022/03/01 05:33:48;;;;;;;21.38;17.85;;;30.30;79.70;;;;;;4163643;28;20061;-67
2022/03/01 05:35:53;;;;;;;22.08;18.00;;;30.40;79.60;;;;;;4163470;28;20084;-68
2022/03/01 05:38:00;;;;;;;19.13;17.02;;;30.40;78.00;;;;;;4163782;28;20489;-68
2022/03/01 05:40:06;;;;;;;22.20;17.90;;;30.40;77.60;;;;;;4163220;28;20057;-68
2022/03/01 05:42:12;;;;;;;20.00;16.85;;;30.40;76.10;;;;;;4155819;28;20045;-68
2022/03/01 05:44:20;;;;;;;19.33;17.05;;;30.50;75.20;;;;;;4162773;28;20084;-69
2022/03/01 05:46:28;;;;;;;19.38;15.93;;;30.50;74.70;;;;;;4161985;28;20531;-68
2022/03/01 05:48:33;;;;;;;21.10;16.17;;;30.50;74.10;;;;;;4163290;28;20140;-67
2022/03/01 05:50:39;;;;;;;20.88;15.75;;;30.50;74.90;;;;;;4164034;28;20107;-67
2022/03/01 05:52:45;;;;;;;18.67;15.98;;;30.60;76.00;;;;;;4163687;28;20768;-67
2022/03/01 05:54:50;;;;;;;19.25;16.48;;;30.70;75.70;;;;;;4163481;28;20127;-67
2022/03/01 05:56:56;;;;;;;21.70;16.10;;;30.70;74.30;;;;;;4163209;28;20069;-67
2022/03/01 05:59:03;;;;;;;18.33;16.27;;;30.80;75.00;;;;;;4163484;28;20092;-66
2022/03/01 06:01:07;;;;;;;18.23;16.02;;;30.90;75.00;;;;;;4163808;28;20080;-65
2022/03/01 06:03:14;;;;;;;18.20;15.50;;;30.90;74.10;;;;;;4163627;28;20041;-66
2022/03/01 06:05:21;;;;;;;19.42;15.82;;;31.00;72.80;;;;;;4162442;28;20049;-66
2022/03/01 06:07:25;;;;;;;16.90;15.02;;;31.10;72.40;;;;;;4155518;28;20037;-66
2022/03/01 06:09:32;;;;;;;19.63;15.70;;;31.10;72.00;;;;;;4163488;28;20084;-66
2022/03/01 06:11:39;;;;;;;16.60;14.50;;;31.20;71.80;;;;;;4162230;28;20052;-66
2022/03/01 06:13:43;;;;;;;17.00;14.23;;;31.20;70.90;;;;;;4163443;28;20066;-66
2022/03/01 06:15:50;;;;;;;17.38;14.85;;;31.20;69.50;;;;;;4162979;28;20091;-66
2022/03/01 06:17:57;;;;;;;16.58;14.27;;;31.20;69.70;;;;;;4163332;28;20396;-66
2022/03/01 06:20:01;;;;;;;15.20;13.70;;;31.20;69.90;;;;;;4161342;28;20554;-66
2022/03/01 06:22:08;;;;;;;15.88;13.07;;;31.20;70.00;;;;;;4163238;28;20511;-66
2022/03/01 06:24:14;;;;;;;15.50;13.00;;;31.20;69.50;;;;;;4164496;28;20669;-66
2022/03/01 06:26:19;;;;;;;15.85;13.57;;;31.30;68.20;;;;;;4163467;28;20103;-66
2022/03/01 06:28:26;;;;;;;16.10;13.48;;;31.30;69.00;;;;;;4163670;28;20503;-65
2022/03/01 06:30:33;;;;;;;14.93;13.32;;;31.40;68.60;;;;;;4163851;28;20037;-66
2022/03/01 06:32:38;;;;;;;15.38;13.30;;;31.40;68.20;;;;;;4162604;28;20050;-66
2022/03/01 06:34:49;;;;;;;14.15;12.45;;;31.50;68.10;;;;;;4162199;28;20053;-64
2022/03/01 06:37:15;;;;;;;14.35;12.68;;;31.50;68.30;;;;;;4160851;28;20117;-66
2022/03/01 06:39:21;;;;;;;17.05;12.70;;;31.60;67.70;;;;;;4163970;28;20065;-66
2022/03/01 06:41:28;;;;;;;14.60;12.93;;;31.60;67.40;;;;;;4162816;28;20091;-66
2022/03/01 06:43:35;;;;;;;14.73;12.93;;;31.60;67.00;;;;;;4163395;28;20391;-65
2022/03/01 06:45:39;;;;;;;14.27;12.88;;;31.60;67.30;;;;;;4154006;28;20055;-66
2022/03/01 06:47:47;;;;;;;14.23;12.73;;;31.70;66.50;;;;;;4162199;28;20382;-66
2022/03/01 06:49:54;;;;;;;14.52;13.07;;;31.70;67.60;;;;;;4161373;28;20050;-65
2022/03/01 06:51:59;;;;;;;15.75;13.23;;;31.70;66.90;;;;;;4161534;28;20083;-66
2022/03/01 06:54:07;;;;;;;15.10;13.50;;;31.70;66.50;;;;;;4163398;28;20072;-66
2022/03/01 06:56:12;;;;;;;14.93;12.75;;;31.70;67.10;;;;;;4161921;28;20057;-66
2022/03/01 06:58:18;;;;;;;16.00;13.57;;;31.80;67.10;;;;;;4155844;28;20500;-66
2022/03/01 07:00:23;;;;;;;15.80;13.48;;;31.90;67.40;;;;;;4160478;28;20504;-66
2022/03/01 07:02:27;;;;;;;17.02;13.18;;;31.90;67.00;;;;;;4160283;28;20041;-66
2022/03/01 07:04:32;;;;;;;15.65;13.23;;;31.90;67.10;;;;;;4161040;28;20041;-66
2022/03/01 07:06:39;;;;;;;14.07;12.57;;;31.90;66.20;;;;;;4161391;28;20048;-65
2022/03/01 07:08:49;;;;;;;17.42;13.30;;;31.90;64.40;;;;;;4161932;28;20045;-68
2022/03/01 07:10:54;;;;;;;13.70;12.18;;;32.10;65.20;;;;;;4163157;28;20087;-69
2022/03/01 07:13:02;;;;;;;15.60;13.18;;;32.10;65.10;;;;;;4162857;28;20072;-68
2022/03/01 07:15:09;;;;;;;14.82;13.23;;;32.10;65.00;;;;;;4159451;28;20107;-68
2022/03/01 07:17:19;;;;;;;;;;;32.00;64.50;;;;;;4162643;28;20145;-69
2022/03/01 07:19:24;;;;;;;14.82;12.90;;;32.10;64.60;;;;;;4162340;28;20433;-69
2022/03/01 07:21:31;;;;;;;14.95;11.88;;;32.10;64.80;;;;;;4161524;28;20335;-69
2022/03/01 07:23:36;;;;;;;13.40;12.00;;;32.10;64.00;;;;;;4162935;28;20047;-67
2022/03/01 07:25:42;;;;;;;13.05;11.68;;;32.10;62.60;;;;;;4162450;28;20133;-68
2022/03/01 07:27:51;;;;;;;13.55;12.05;;;32.10;62.00;;;;;;4162944;28;20164;-67
2022/03/01 07:29:56;;;;;;;14.05;12.57;;;32.20;63.30;;;;;;4162370;28;20034;-68
2022/03/01 07:32:05;;;;;;;16.42;11.85;;;32.20;63.40;;;;;;4163141;28;20107;-68
2022/03/01 07:34:10;;;;;;;13.85;11.93;;;32.20;62.90;;;;;;4165631;28;20789;-63
2022/03/01 07:36:16;;;;;;;13.70;11.82;;;32.20;62.40;;;;;;4165135;28;20041;-64
2022/03/01 07:38:20;;;;;;;13.70;12.30;;;32.30;61.50;;;;;;4165460;28;20423;-65
2022/03/01 07:40:27;;;;;;;13.38;11.63;;;32.30;62.60;;;;;;4164182;28;20068;-65
2022/03/01 07:42:31;;;;;;;12.77;11.35;;;32.30;63.50;;;;;;4163739;28;20041;-63
2022/03/01 07:44:38;;;;;;;12.85;11.52;;;32.30;62.80;;;;;;4164167;28;20053;-63
2022/03/01 07:46:45;;;;;;;14.35;11.93;;;32.40;62.60;;;;;;4165064;28;20077;-65
2022/03/01 07:48:50;;;;;;;14.60;12.05;;;32.50;62.20;;;;;;4165251;28;20045;-65
2022/03/01 07:50:57;;;;;;;13.07;11.77;;;32.40;61.90;;;;;;4156661;28;20048;-64
2022/03/01 07:53:03;;;;;;;14.13;11.38;;;32.40;61.00;;;;;;4168649;28;20061;-64
2022/03/01 07:55:08;;;;;;;12.82;11.38;;;32.50;60.10;;;;;;4165338;28;20052;-63
2022/03/01 07:57:13;;;;;;;13.25;10.50;;;32.60;60.90;;;;;;4159216;28;20566;-65
2022/03/01 07:59:19;;;;;;;12.63;9.93;;;32.50;61.00;;;;;;4165371;28;20053;-65
2022/03/01 08:01:24;;;;;;;11.45;10.25;;;32.50;61.40;;;;;;4164940;28;20740;-64
2022/03/01 08:03:30;;;;;;;10.80;9.70;;;32.40;60.00;;;;;;4164287;28;20041;-64
2022/03/01 08:05:38;;;;;;;12.32;10.98;;;32.40;60.10;;;;;;4162966;28;20044;-65
2022/03/01 08:07:42;;;;;;;11.43;10.23;;;32.40;59.90;;;;;;4164896;28;20076;-64
2022/03/01 08:09:49;;;;;;;12.70;10.82;;;32.40;59.40;;;;;;4197159;28;20041;-63
2022/03/01 08:11:55;;;;;;;11.68;10.48;;;32.40;59.30;;;;;;4164277;28;20512;-64
2022/03/01 08:14:02;;;;;;;13.05;10.65;;;32.40;58.90;;;;;;4165144;28;20503;-65
2022/03/01 08:16:08;;;;;;;15.18;11.50;;;32.40;59.00;;;;;;4157240;28;20608;-64
2022/03/01 08:18:15;;;;;;;12.07;10.77;;;32.40;59.50;;;;;;4164521;28;20096;-63
2022/03/01 08:20:20;;;;;;;12.05;10.85;;;32.40;58.80;;;;;;4164789;28;20132;-65
2022/03/01 08:22:27;;;;;;;12.43;11.13;;;32.40;59.90;;;;;;4164186;28;20045;-63
2022/03/01 08:24:33;;;;;;;13.77;11.52;;;32.40;60.20;;;;;;4163461;28;20045;-64
2022/03/01 08:26:38;;;;;;;15.45;12.05;;;32.40;60.30;;;;;;4164756;28;20080;-64
2022/03/01 08:28:45;;;;;;;13.52;12.02;;;32.40;59.50;;;;;;4164714;28;20091;-65
2022/03/01 08:30:54;;;;;;;13.68;12.27;;;32.40;59.40;;;;;;4164157;28;20488;-64
2022/03/01 08:32:58;;;;;;;14.25;12.77;;;32.50;58.10;;;;;;4164229;28;20051;-64
2022/03/01 08:35:06;;;;;;;14.45;12.45;;;32.50;58.40;;;;;;4154488;28;20569;-64
2022/03/01 08:37:12;;;;;;;16.77;12.25;;;32.50;58.80;;;;;;4153417;28;20046;-64
2022/03/01 08:39:17;;;;;;;12.00;10.70;;;32.50;58.70;;;;;;4164073;28;20050;-64
2022/03/01 08:41:24;;;;;;;13.85;12.30;;;32.50;58.70;;;;;;4160773;28;20061;-64
2022/03/01 08:43:30;;;;;;;14.25;11.45;;;32.50;58.30;;;;;;4163353;28;20055;-64
2022/03/01 08:45:37;;;;;;;13.18;11.60;;;32.50;58.30;;;;;;4160964;28;20038;-64
2022/03/01 08:47:45;;;;;;;13.48;12.07;;;32.50;59.10;;;;;;4160791;28;20048;-65
2022/03/01 08:49:51;;;;;;;12.50;11.20;;;32.50;59.20;;;;;;4160485;28;20038;-64
2022/03/01 08:51:56;;;;;;;13.07;11.68;;;32.60;59.20;;;;;;4193887;28;20048;-64
2022/03/01 08:54:03;;;;;;;12.52;10.60;;;32.50;59.70;;;;;;4163515;28;20073;-63
2022/03/01 08:56:14;;;;;;;13.30;11.48;;;32.50;60.40;;;;;;4162769;28;20061;-64
2022/03/01 08:58:18;;;;;;;14.23;12.10;;;32.50;60.90;;;;;;4164563;28;20129;-64
2022/03/01 09:00:26;;;;;;;14.98;11.95;;;32.50;60.40;;;;;;4164276;28;20057;-64
2022/03/01 09:02:34;;;;;;;13.77;12.38;;;32.40;60.50;;;;;;4164049;28;20522;-64
2022/03/01 09:04:38;;;;;;;14.27;12.40;;;32.40;60.60;;;;;;4163232;28;20049;-63
2022/03/01 09:06:44;;;;;;;13.13;11.82;;;32.40;60.80;;;;;;4162891;28;20041;-64
2022/03/01 09:08:55;;;;;;;13.05;11.43;;;32.30;60.70;;;;;;4164548;28;20052;-64
2022/03/01 09:11:00;;;;;;;13.90;11.10;;;32.30;59.60;;;;;;4164801;28;20033;-64
2022/03/01 09:13:06;;;;;;;14.15;11.20;;;32.30;60.40;;;;;;4169534;28;20129;-64
2022/03/01 09:15:12;;;;;;;12.60;11.30;;;32.30;60.90;;;;;;4165774;28;20049;-64
2022/03/01 09:17:17;;;;;;;12.77;10.93;;;32.30;61.00;;;;;;4164425;28;20057;-64
2022/03/01 09:19:24;;;;;;;12.77;11.07;;;32.30;60.80;;;;;;4164074;28;20049;-64
2022/03/01 09:21:30;;;;;;;11.88;10.68;;;32.30;60.50;;;;;;4164155;28;20455;-64
2022/03/01 09:23:35;;;;;;;13.02;11.63;;;32.30;58.90;;;;;;4163715;28;20459;-64
2022/03/01 09:25:39;;;;;;;11.85;10.65;;;32.30;59.40;;;;;;4129114;28;20073;-64
2022/03/01 09:27:46;;;;;;;13.13;11.43;;;32.30;59.50;;;;;;4164264;28;20406;-64
2022/03/01 09:29:50;;;;;;;14.60;12.05;;;32.20;59.50;;;;;;4164351;28;20052;-64
2022/03/01 09:31:57;;;;;;;14.30;11.57;;;32.30;59.60;;;;;;4164258;28;20480;-64
2022/03/01 09:34:04;;;;;;;13.23;11.20;;;32.30;60.40;;;;;;4162494;28;20476;-64
2022/03/01 09:36:10;;;;;;;14.20;10.82;;;32.30;60.80;;;;;;4163806;28;20045;-64
2022/03/01 09:38:15;;;;;;;13.13;11.30;;;32.20;61.20;;;;;;4162911;28;20054;-64
2022/03/01 09:40:21;;;;;;;12.57;11.13;;;32.20;62.00;;;;;;4163931;28;20091;-64
2022/03/01 09:42:26;;;;;;;17.23;10.93;;;32.20;61.40;;;;;;4162551;28;20053;-64
2022/03/01 09:44:33;;;;;;;12.60;10.43;;;32.10;61.30;;;;;;4162022;28;20076;-63
2022/03/01 09:46:43;;;;;;;12.38;11.07;;;32.10;61.20;;;;;;4163467;28;20045;-64
2022/03/01 09:48:48;;;;;;;12.85;10.65;;;32.10;61.80;;;;;;4164002;28;20045;-64
2022/03/01 09:50:55;;;;;;;12.93;10.65;;;32.10;62.20;;;;;;4163709;28;20038;-63
2022/03/01 09:53:01;;;;;;;14.18;10.95;;;32.00;62.20;;;;;;4162566;28;20515;-63
2022/03/01 09:55:07;;;;;;;14.25;11.80;;;32.00;62.80;;;;;;4162659;28;20099;-64
2022/03/01 09:57:14;;;;;;;18.25;12.70;;;32.00;62.70;;;;;;4163608;28;20045;-64
2022/03/01 09:59:19;;;;;;;17.27;12.80;;;32.00;63.00;;;;;;4164060;28;20042;-64
2022/03/01 10:01:24;;;;;;;15.43;11.80;;;32.00;63.00;;;;;;4163289;28;20543;-64
2022/03/01 10:03:31;;;;;;;14.80;12.45;;;32.00;63.30;;;;;;4162926;28;20521;-64
2022/03/01 10:05:39;;;;;;;13.18;11.77;;;32.00;63.30;;;;;;4154574;28;20137;-64
2022/03/01 10:07:45;;;;;;;13.65;12.18;;;31.90;63.70;;;;;;4162324;28;20034;-64
2022/03/01 10:09:52;;;;;;;14.15;11.93;;;31.90;64.40;;;;;;4157712;28;20084;-64
2022/03/01 10:12:04;;;;;;;14.20;11.55;;;31.90;64.50;;;;;;4163193;28;20374;-64
2022/03/01 10:14:09;;;;;;;12.73;11.45;;;31.90;65.20;;;;;;4162942;28;20100;-62
2022/03/01 10:16:17;;;;;;;16.83;11.73;;;31.80;66.00;;;;;;4163064;28;20641;-64
2022/03/01 10:18:29;;;;;;;14.75;11.07;;;31.80;65.70;;;;;;4163229;28;20049;-64
2022/03/01 10:20:34;;;;;;;16.95;12.32;;;31.80;65.70;;;;;;4163277;28;20052;-64
2022/03/01 10:22:48;;;;;;;12.88;11.57;;;31.70;65.60;;;;;;4161764;28;20104;-64
2022/03/01 10:24:54;;;;;;;14.73;12.15;;;31.70;65.40;;;;;;4162726;28;20114;-64
2022/03/01 10:27:01;;;;;;;15.85;11.85;;;31.70;65.70;;;;;;4161671;28;20475;-64
2022/03/01 10:29:15;;;;;;;13.98;11.38;;;31.60;66.00;;;;;;4162534;28;20108;-64
2022/03/01 10:31:24;;;;;;;14.65;11.73;;;31.60;66.40;;;;;;4162246;28;20124;-64
2022/03/01 10:33:29;;;;;;;15.13;11.75;;;31.60;66.70;;;;;;4158964;28;20041;-65
2022/03/01 10:35:33;;;;;;;15.73;11.65;;;31.60;67.10;;;;;;4161512;28;20065;-64
2022/03/01 10:37:40;;;;;;;13.18;11.65;;;31.50;67.20;;;;;;4162881;28;20052;-64
2022/03/01 10:39:44;;;;;;;12.60;10.80;;;31.50;67.60;;;;;;4157552;28;20092;-65
2022/03/01 10:41:51;;;;;;;13.48;11.85;;;31.40;67.90;;;;;;4159006;28;20045;-63